ENFB/FBU METAR and TAF weather

Enter ICAO airport designator
Station Type Date Time Source
ENFB METAR 2022/06/26 07:50 UTC NOAA

ENFB 260750Z AUTO 14020KT 3100NDV BR BKN004/// BKN048/// 13/12 Q1013 W///S3


Station Type Date Time Source
ENFB Decoded METAR 2022/06/26 07:50 UTC NOAA

Oslo / Fornebu, Norway (ENFB) 59-54N 010-38E 17M
Jun 26, 2022 - 03:50 AM EDT / 2022.06.26 0750 UTC
Wind: from the SE (140 degrees) at 23 MPH (20 KT):0
Sky conditions: mostly cloudy
Weather: mist
Temperature: 55 F (13 C)
Dew Point: 53 F (12 C)
Relative Humidity: 93%
Pressure (altimeter): 29.91 in. Hg (1013 hPa)
ob: ENFB 260750Z AUTO 14020KT 3100NDV BR BKN004/// BKN048/// 13/12 Q1013 W///S3
cycle: 8

Station Type Date Time Source
ENFB TAF UTC NOAA

Error!

Example: see airport list